Gullane, United Kingdom
Current Conditions -  °F | °C
As of 8:50 PM on Tuesday 27 Jan 2015 (Local Time) from EGPH Reporting Station
Broken Clouds Broken Clouds  
Wind Chill:   Ceiling: 1400
Heat Index:   Visibility: 6mi
Dew Point:   Wind: 18mph
Humidity: 81%   Direction: 230°SW
Pressure: 29.83"   Gusts: NA
Location:  56.04°N, 2.83°W
Report Text: EGPH 272050Z 23016KT 9999 BKN014 07/04 Q1010
Loading
Personal Weather Stations






























Interactive Weather Map New forecast layout! Learn more

10-Day Weather Forecast

Advertisements
Track Severe Weather on mobile